sensor_id;sensor_type;location;lat;lon;timestamp;pressure;altitude;pressure_sealevel;temperature;humidity
63287;BME280;49410;55.708;37.522;2023-01-29T00:01:08;99627.75;;;-1.64;68.93
63287;BME280;49410;55.708;37.522;2023-01-29T00:03:33;99623.06;;;-1.75;68.91
63287;BME280;49410;55.708;37.522;2023-01-29T00:06:03;99622.28;;;-1.77;69.39
63287;BME280;49410;55.708;37.522;2023-01-29T00:08:33;99625.25;;;-1.81;69.21
63287;BME280;49410;55.708;37.522;2023-01-29T00:11:05;99623.97;;;-1.90;69.63
63287;BME280;49410;55.708;37.522;2023-01-29T00:13:31;99624.66;;;-1.87;69.89
63287;BME280;49410;55.708;37.522;2023-01-29T00:15:59;99621.69;;;-1.96;69.92
63287;BME280;49410;55.708;37.522;2023-01-29T00:18:26;99615.44;;;-1.97;69.62
63287;BME280;49410;55.708;37.522;2023-01-29T00:20:52;99617.94;;;-1.94;69.91
63287;BME280;49410;55.708;37.522;2023-01-29T00:23:17;99619.16;;;-1.99;70.13
63287;BME280;49410;55.708;37.522;2023-01-29T00:25:43;99608.22;;;-2.11;70.19
63287;BME280;49410;55.708;37.522;2023-01-29T00:28:09;99602.59;;;-2.06;70.51
63287;BME280;49410;55.708;37.522;2023-01-29T00:30:35;99610.34;;;-2.01;70.52
63287;BME280;49410;55.708;37.522;2023-01-29T00:33:01;99613.63;;;-1.96;70.70
63287;BME280;49410;55.708;37.522;2023-01-29T00:35:27;99620.53;;;-1.92;70.36
63287;BME280;49410;55.708;37.522;2023-01-29T00:37:57;99618.22;;;-1.98;70.17
63287;BME280;49410;55.708;37.522;2023-01-29T00:40:24;99601.00;;;-1.94;70.46
63287;BME280;49410;55.708;37.522;2023-01-29T00:42:49;99603.38;;;-2.04;70.09
63287;BME280;49410;55.708;37.522;2023-01-29T00:45:34;99600.84;;;-2.07;70.60
63287;BME280;49410;55.708;37.522;2023-01-29T00:48:03;99596.94;;;-2.16;70.61
63287;BME280;49410;55.708;37.522;2023-01-29T00:50:29;99597.34;;;-2.08;70.62
63287;BME280;49410;55.708;37.522;2023-01-29T00:52:55;99595.50;;;-2.07;70.70
63287;BME280;49410;55.708;37.522;2023-01-29T00:55:21;99595.31;;;-2.04;70.81
63287;BME280;49410;55.708;37.522;2023-01-29T00:57:46;99598.00;;;-2.04;71.03
63287;BME280;49410;55.708;37.522;2023-01-29T01:00:14;99596.06;;;-2.16;70.96
63287;BME280;49410;55.708;37.522;2023-01-29T01:02:40;99600.47;;;-2.15;71.21
63287;BME280;49410;55.708;37.522;2023-01-29T01:05:24;99601.28;;;-2.29;70.90
63287;BME280;49410;55.708;37.522;2023-01-29T01:07:51;99600.44;;;-2.30;70.35
63287;BME280;49410;55.708;37.522;2023-01-29T01:10:28;99596.56;;;-2.40;68.88
63287;BME280;49410;55.708;37.522;2023-01-29T01:12:56;99585.84;;;-2.40;68.34
63287;BME280;49410;55.708;37.522;2023-01-29T01:15:25;99589.88;;;-2.33;67.75
63287;BME280;49410;55.708;37.522;2023-01-29T01:17:53;99594.03;;;-2.27;67.94
63287;BME280;49410;55.708;37.522;2023-01-29T01:20:19;99594.59;;;-2.22;67.53
63287;BME280;49410;55.708;37.522;2023-01-29T01:22:44;99594.53;;;-2.21;65.85
63287;BME280;49410;55.708;37.522;2023-01-29T01:25:13;99594.97;;;-2.28;65.56
63287;BME280;49410;55.708;37.522;2023-01-29T01:27:39;99592.28;;;-2.28;65.73
63287;BME280;49410;55.708;37.522;2023-01-29T01:30:06;99599.78;;;-2.19;65.76
63287;BME280;49410;55.708;37.522;2023-01-29T01:32:32;99594.44;;;-2.19;65.44
63287;BME280;49410;55.708;37.522;2023-01-29T01:34:57;99594.44;;;-2.19;65.40
63287;BME280;49410;55.708;37.522;2023-01-29T01:37:23;99591.75;;;-2.19;65.31
63287;BME280;49410;55.708;37.522;2023-01-29T01:39:48;99595.56;;;-2.23;64.64
63287;BME280;49410;55.708;37.522;2023-01-29T01:42:14;99580.19;;;-2.20;65.54
63287;BME280;49410;55.708;37.522;2023-01-29T01:47:34;99572.41;;;-2.24;65.53
63287;BME280;49410;55.708;37.522;2023-01-29T01:51:06;99581.13;;;-2.21;65.67
63287;BME280;49410;55.708;37.522;2023-01-29T01:53:12;99573.38;;;-2.25;65.59
63287;BME280;49410;55.708;37.522;2023-01-29T01:55:46;99573.38;;;-2.25;65.23
63287;BME280;49410;55.708;37.522;2023-01-29T01:58:21;99576.34;;;-2.15;65.53
63287;BME280;49410;55.708;37.522;2023-01-29T02:00:50;99568.81;;;-2.09;66.16
63287;BME280;49410;55.708;37.522;2023-01-29T02:03:16;99562.59;;;-2.09;64.51
63287;BME280;49410;55.708;37.522;2023-01-29T02:06:02;99559.81;;;-2.08;65.48
63287;BME280;49410;55.708;37.522;2023-01-29T02:11:35;99554.91;;;-2.15;64.86
63287;BME280;49410;55.708;37.522;2023-01-29T02:14:04;99549.16;;;-2.24;65.02
63287;BME280;49410;55.708;37.522;2023-01-29T02:16:33;99546.97;;;-2.17;65.20
63287;BME280;49410;55.708;37.522;2023-01-29T02:18:58;99549.38;;;-2.12;65.28
63287;BME280;49410;55.708;37.522;2023-01-29T02:27:04;99534.13;;;-2.12;64.41
63287;BME280;49410;55.708;37.522;2023-01-29T02:29:46;99537.50;;;-2.08;64.53
63287;BME280;49410;55.708;37.522;2023-01-29T02:35:34;99527.75;;;-2.09;63.89
63287;BME280;49410;55.708;37.522;2023-01-29T02:38:17;99522.69;;;-2.14;64.13
63287;BME280;49410;55.708;37.522;2023-01-29T02:41:00;99512.97;;;-2.16;63.49
63287;BME280;49410;55.708;37.522;2023-01-29T02:43:43;99512.69;;;-2.12;64.24
63287;BME280;49410;55.708;37.522;2023-01-29T02:46:27;99514.03;;;-2.19;63.81
63287;BME280;49410;55.708;37.522;2023-01-29T02:49:22;99508.28;;;-2.13;64.15
63287;BME280;49410;55.708;37.522;2023-01-29T02:57:46;99488.50;;;-2.10;64.05
63287;BME280;49410;55.708;37.522;2023-01-29T03:00:19;99493.59;;;-2.06;64.36
63287;BME280;49410;55.708;37.522;2023-01-29T03:02:57;99488.09;;;-2.19;64.18
63287;BME280;49410;55.708;37.522;2023-01-29T03:05:36;99481.31;;;-2.10;64.43
63287;BME280;49410;55.708;37.522;2023-01-29T03:08:10;99491.75;;;-2.05;65.09
63287;BME280;49410;55.708;37.522;2023-01-29T03:10:39;99479.91;;;-2.01;64.84
63287;BME280;49410;55.708;37.522;2023-01-29T03:15:38;99478.72;;;-1.97;64.58
63287;BME280;49410;55.708;37.522;2023-01-29T03:18:10;99474.25;;;-1.96;64.80
63287;BME280;49410;55.708;37.522;2023-01-29T03:21:01;99453.00;;;-1.99;64.46
63287;BME280;49410;55.708;37.522;2023-01-29T03:23:30;99454.44;;;-1.94;64.66
63287;BME280;49410;55.708;37.522;2023-01-29T03:26:19;99461.41;;;-1.91;64.70
63287;BME280;49410;55.708;37.522;2023-01-29T03:29:05;99456.81;;;-1.89;64.43
63287;BME280;49410;55.708;37.522;2023-01-29T03:31:52;99442.34;;;-1.87;64.68
63287;BME280;49410;55.708;37.522;2023-01-29T03:34:35;99436.13;;;-1.87;64.23
63287;BME280;49410;55.708;37.522;2023-01-29T03:37:10;99432.69;;;-1.89;63.63
63287;BME280;49410;55.708;37.522;2023-01-29T03:39:40;99427.91;;;-1.84;64.04
63287;BME280;49410;55.708;37.522;2023-01-29T03:49:59;99408.38;;;-1.86;63.60
63287;BME280;49410;55.708;37.522;2023-01-29T03:52:45;99400.53;;;-1.89;62.50
63287;BME280;49410;55.708;37.522;2023-01-29T04:01:00;99391.81;;;-1.93;63.07
63287;BME280;49410;55.708;37.522;2023-01-29T04:03:33;99392.41;;;-2.02;62.73
63287;BME280;49410;55.708;37.522;2023-01-29T04:11:19;99378.59;;;-1.96;63.73
63287;BME280;49410;55.708;37.522;2023-01-29T04:13:45;99380.81;;;-1.88;63.81
63287;BME280;49410;55.708;37.522;2023-01-29T04:16:16;99345.31;;;-2.06;62.85
63287;BME280;49410;55.708;37.522;2023-01-29T04:18:46;99357.09;;;-1.94;63.30
63287;BME280;49410;55.708;37.522;2023-01-29T04:21:13;99359.75;;;-1.94;63.14
63287;BME280;49410;55.708;37.522;2023-01-29T04:23:39;99361.25;;;-1.90;63.37
63287;BME280;49410;55.708;37.522;2023-01-29T04:34:28;99364.53;;;-1.85;62.67
63287;BME280;49410;55.708;37.522;2023-01-29T04:37:15;99373.03;;;-1.78;62.74
63287;BME280;49410;55.708;37.522;2023-01-29T04:39:53;99367.56;;;-1.77;63.50
63287;BME280;49410;55.708;37.522;2023-01-29T04:48:25;99366.34;;;-1.85;63.42
63287;BME280;49410;55.708;37.522;2023-01-29T04:51:15;99366.25;;;-1.84;63.61
63287;BME280;49410;55.708;37.522;2023-01-29T04:56:32;99360.47;;;-1.78;64.19
63287;BME280;49410;55.708;37.522;2023-01-29T04:59:07;99347.50;;;-1.84;63.76
63287;BME280;49410;55.708;37.522;2023-01-29T05:01:34;99343.38;;;-1.90;63.72
63287;BME280;49410;55.708;37.522;2023-01-29T05:04:06;99357.16;;;-1.81;63.70
63287;BME280;49410;55.708;37.522;2023-01-29T05:06:34;99344.81;;;-1.84;63.70
63287;BME280;49410;55.708;37.522;2023-01-29T05:09:02;99335.22;;;-1.88;63.89
63287;BME280;49410;55.708;37.522;2023-01-29T05:11:30;99319.75;;;-1.97;63.97
63287;BME280;49410;55.708;37.522;2023-01-29T05:13:57;99340.69;;;-1.90;63.75
63287;BME280;49410;55.708;37.522;2023-01-29T05:16:28;99347.50;;;-1.84;64.18
63287;BME280;49410;55.708;37.522;2023-01-29T05:18:54;99352.75;;;-1.97;63.98
63287;BME280;49410;55.708;37.522;2023-01-29T05:21:20;99340.53;;;-2.01;63.96
63287;BME280;49410;55.708;37.522;2023-01-29T05:24:20;99353.16;;;-1.89;64.17
63287;BME280;49410;55.708;37.522;2023-01-29T05:26:47;99354.75;;;-1.86;63.85
63287;BME280;49410;55.708;37.522;2023-01-29T05:29:31;99309.50;;;-2.05;64.45
63287;BME280;49410;55.708;37.522;2023-01-29T05:31:57;99347.78;;;-1.89;64.44
63287;BME280;49410;55.708;37.522;2023-01-29T05:34:23;99355.53;;;-1.84;64.58
63287;BME280;49410;55.708;37.522;2023-01-29T05:36:49;99345.09;;;-1.89;64.52
63287;BME280;49410;55.708;37.522;2023-01-29T05:39:15;99338.31;;;-1.94;64.26
63287;BME280;49410;55.708;37.522;2023-01-29T05:41:40;99351.19;;;-1.87;64.49
63287;BME280;49410;55.708;37.522;2023-01-29T05:44:06;99353.41;;;-1.79;64.92
63287;BME280;49410;55.708;37.522;2023-01-29T05:46:32;99313.81;;;-2.03;64.79
63287;BME280;49410;55.708;37.522;2023-01-29T05:48:57;99353.59;;;-1.82;64.67
63287;BME280;49410;55.708;37.522;2023-01-29T05:51:23;99336.38;;;-1.92;64.62
63287;BME280;49410;55.708;37.522;2023-01-29T05:53:49;99352.09;;;-1.86;64.25
63287;BME280;49410;55.708;37.522;2023-01-29T05:56:14;99321.19;;;-2.06;64.92
63287;BME280;49410;55.708;37.522;2023-01-29T05:58:40;99352.63;;;-1.81;64.92
63287;BME280;49410;55.708;37.522;2023-01-29T06:01:16;99362.59;;;-1.83;64.76
63287;BME280;49410;55.708;37.522;2023-01-29T06:03:41;99351.19;;;-1.87;64.82
63287;BME280;49410;55.708;37.522;2023-01-29T06:06:07;99346.06;;;-2.19;64.77
63287;BME280;49410;55.708;37.522;2023-01-29T06:08:33;99350.47;;;-2.03;64.63
63287;BME280;49410;55.708;37.522;2023-01-29T06:10:58;99342.84;;;-2.09;65.04
63287;BME280;49410;55.708;37.522;2023-01-29T06:13:24;99354.88;;;-2.02;65.15
63287;BME280;49410;55.708;37.522;2023-01-29T06:15:50;99348.09;;;-2.08;64.81
63287;BME280;49410;55.708;37.522;2023-01-29T06:18:15;99357.47;;;-2.00;64.54
63287;BME280;49410;55.708;37.522;2023-01-29T06:20:41;99333.56;;;-2.04;64.81
63287;BME280;49410;55.708;37.522;2023-01-29T06:23:06;99348.16;;;-1.95;64.38
63287;BME280;49410;55.708;37.522;2023-01-29T06:25:31;99324.63;;;-2.04;64.70
63287;BME280;49410;55.708;37.522;2023-01-29T06:27:59;99315.75;;;-2.05;64.48
63287;BME280;49410;55.708;37.522;2023-01-29T06:30:25;99327.47;;;-1.93;64.30
63287;BME280;49410;55.708;37.522;2023-01-29T06:32:55;99323.38;;;-1.98;64.46
63287;BME280;49410;55.708;37.522;2023-01-29T06:35:23;99326.22;;;-1.87;64.41
63287;BME280;49410;55.708;37.522;2023-01-29T06:37:49;99336.53;;;-1.81;64.14
63287;BME280;49410;55.708;37.522;2023-01-29T06:40:14;99331.84;;;-1.77;63.93
63287;BME280;49410;55.708;37.522;2023-01-29T06:42:40;99323.66;;;-1.89;64.16
63287;BME280;49410;55.708;37.522;2023-01-29T06:45:06;99321.84;;;-2.03;63.31
63287;BME280;49410;55.708;37.522;2023-01-29T06:47:32;99329.03;;;-2.03;64.20
63287;BME280;49410;55.708;37.522;2023-01-29T06:49:57;99326.16;;;-2.00;64.40
63287;BME280;49410;55.708;37.522;2023-01-29T06:52:23;99321.94;;;-2.04;63.55
63287;BME280;49410;55.708;37.522;2023-01-29T06:54:53;99324.81;;;-1.93;64.04
63287;BME280;49410;55.708;37.522;2023-01-29T06:57:18;99321.53;;;-1.83;63.56
63287;BME280;49410;55.708;37.522;2023-01-29T06:59:44;99309.19;;;-1.86;63.78
63287;BME280;49410;55.708;37.522;2023-01-29T07:02:09;99299.22;;;-1.84;63.66
63287;BME280;49410;55.708;37.522;2023-01-29T07:04:35;99305.44;;;-1.83;63.08
63287;BME280;49410;55.708;37.522;2023-01-29T07:07:02;99292.59;;;-1.78;63.31
63287;BME280;49410;55.708;37.522;2023-01-29T07:09:28;99300.22;;;-1.72;63.76
63287;BME280;49410;55.708;37.522;2023-01-29T07:11:53;99296.97;;;-1.77;62.52
63287;BME280;49410;55.708;37.522;2023-01-29T07:14:19;99287.13;;;-1.77;63.45
63287;BME280;49410;55.708;37.522;2023-01-29T07:16:44;99306.06;;;-1.65;63.10
63287;BME280;49410;55.708;37.522;2023-01-29T07:19:10;99292.84;;;-1.68;63.57
63287;BME280;49410;55.708;37.522;2023-01-29T07:21:36;99290.16;;;-1.68;63.03
63287;BME280;49410;55.708;37.522;2023-01-29T07:24:01;99283.84;;;-1.67;62.95
63287;BME280;49410;55.708;37.522;2023-01-29T07:26:27;99289.44;;;-1.58;61.50
63287;BME280;49410;55.708;37.522;2023-01-29T07:28:53;99294.09;;;-1.74;59.43
63287;BME280;49410;55.708;37.522;2023-01-29T07:31:18;99268.47;;;-1.78;60.45
63287;BME280;49410;55.708;37.522;2023-01-29T07:33:44;99273.53;;;-1.74;60.59
63287;BME280;49410;55.708;37.522;2023-01-29T07:36:11;99262.69;;;-1.72;61.95
63287;BME280;49410;55.708;37.522;2023-01-29T07:38:37;99288.25;;;-1.66;62.46
63287;BME280;49410;55.708;37.522;2023-01-29T07:41:02;99286.00;;;-1.60;62.54
63287;BME280;49410;55.708;37.522;2023-01-29T07:43:27;99285.72;;;-1.55;62.87
63287;BME280;49410;55.708;37.522;2023-01-29T07:45:54;99236.69;;;-1.84;63.07
63287;BME280;49410;55.708;37.522;2023-01-29T07:48:20;99245.72;;;-1.73;63.49
63287;BME280;49410;55.708;37.522;2023-01-29T07:50:53;99268.19;;;-1.61;63.02
63287;BME280;49410;55.708;37.522;2023-01-29T07:53:19;99267.16;;;-1.45;62.57
63287;BME280;49410;55.708;37.522;2023-01-29T07:55:44;99259.97;;;-1.45;61.67
63287;BME280;49410;55.708;37.522;2023-01-29T07:58:10;99245.56;;;-1.57;60.81
63287;BME280;49410;55.708;37.522;2023-01-29T08:03:27;99232.06;;;-1.55;60.73
63287;BME280;49410;55.708;37.522;2023-01-29T08:05:53;99266.53;;;-1.36;61.34
63287;BME280;49410;55.708;37.522;2023-01-29T08:08:18;99269.78;;;-1.31;60.65
63287;BME280;49410;55.708;37.522;2023-01-29T08:10:44;99266.13;;;-1.30;60.53
63287;BME280;49410;55.708;37.522;2023-01-29T08:13:09;99250.34;;;-1.34;61.14
63287;BME280;49410;55.708;37.522;2023-01-29T08:15:35;99247.44;;;-1.31;60.27
63287;BME280;49410;55.708;37.522;2023-01-29T08:18:02;99242.38;;;-1.36;60.33
63287;BME280;49410;55.708;37.522;2023-01-29T08:20:27;99238.34;;;-1.29;60.56
63287;BME280;49410;55.708;37.522;2023-01-29T08:23:09;99242.38;;;-1.36;60.73
63287;BME280;49410;55.708;37.522;2023-01-29T08:25:35;99241.03;;;-1.16;60.86
63287;BME280;49410;55.708;37.522;2023-01-29T08:28:01;99234.69;;;-1.15;60.45
63287;BME280;49410;55.708;37.522;2023-01-29T08:30:27;99238.34;;;-1.16;59.49
63287;BME280;49410;55.708;37.522;2023-01-29T08:32:53;99230.94;;;-1.12;60.12
63287;BME280;49410;55.708;37.522;2023-01-29T08:35:18;99217.94;;;-1.18;60.25
63287;BME280;49410;55.708;37.522;2023-01-29T08:37:46;99236.72;;;-1.05;59.43
63287;BME280;49410;55.708;37.522;2023-01-29T08:40:16;99232.66;;;-1.11;60.37
63287;BME280;49410;55.708;37.522;2023-01-29T08:42:41;99243.50;;;-1.00;60.13
63287;BME280;49410;55.708;37.522;2023-01-29T08:45:07;99233.81;;;-1.15;60.19
63287;BME280;49410;55.708;37.522;2023-01-29T08:47:33;99232.31;;;-1.06;59.66
63287;BME280;49410;55.708;37.522;2023-01-29T08:49:58;99243.28;;;-1.10;59.54
63287;BME280;49410;55.708;37.522;2023-01-29T08:52:24;99235.66;;;-1.16;59.39
63287;BME280;49410;55.708;37.522;2023-01-29T08:54:49;99225.31;;;-1.22;59.28
63287;BME280;49410;55.708;37.522;2023-01-29T08:57:14;99229.53;;;-1.18;59.91
63287;BME280;49410;55.708;37.522;2023-01-29T08:59:40;99238.34;;;-1.16;59.16
63287;BME280;49410;55.708;37.522;2023-01-29T09:02:05;99224.28;;;-1.06;60.15
63287;BME280;49410;55.708;37.522;2023-01-29T09:04:33;99222.13;;;-1.01;59.65
63287;BME280;49410;55.708;37.522;2023-01-29T09:06:58;99212.25;;;-1.01;60.04
63287;BME280;49410;55.708;37.522;2023-01-29T09:09:24;99222.22;;;-1.03;58.92
63287;BME280;49410;55.708;37.522;2023-01-29T09:11:49;99225.16;;;-0.93;59.48
63287;BME280;49410;55.708;37.522;2023-01-29T09:14:15;99211.16;;;-0.98;59.68
63287;BME280;49410;55.708;37.522;2023-01-29T09:16:40;99216.34;;;-0.95;59.25
63287;BME280;49410;55.708;37.522;2023-01-29T09:19:06;99225.03;;;-0.91;58.79
63287;BME280;49410;55.708;37.522;2023-01-29T09:21:32;99228.34;;;-1.01;58.85
63287;BME280;49410;55.708;37.522;2023-01-29T09:23:57;99216.09;;;-1.05;59.69
63287;BME280;49410;55.708;37.522;2023-01-29T09:26:23;99212.88;;;-0.97;60.35
63287;BME280;49410;55.708;37.522;2023-01-29T09:28:48;99215.06;;;-1.02;59.83
63287;BME280;49410;55.708;37.522;2023-01-29T09:31:14;99194.63;;;-1.05;60.05
63287;BME280;49410;55.708;37.522;2023-01-29T09:33:39;99191.94;;;-1.05;60.01
63287;BME280;49410;55.708;37.522;2023-01-29T09:36:05;99189.69;;;-0.98;59.97
63287;BME280;49410;55.708;37.522;2023-01-29T09:38:31;99196.47;;;-0.92;59.77
63287;BME280;49410;55.708;37.522;2023-01-29T09:41:18;99183.69;;;-1.02;59.28
63287;BME280;49410;55.708;37.522;2023-01-29T09:43:50;99192.34;;;-0.85;59.88
63287;BME280;49410;55.708;37.522;2023-01-29T09:46:34;99183.38;;;-1.10;58.62
63287;BME280;49410;55.708;37.522;2023-01-29T09:49:16;99187.56;;;-0.93;59.38
63287;BME280;49410;55.708;37.522;2023-01-29T09:51:51;99180.88;;;-1.00;59.24
63287;BME280;49410;55.708;37.522;2023-01-29T09:54:23;99174.38;;;-1.09;59.47
63287;BME280;49410;55.708;37.522;2023-01-29T09:56:53;99172.41;;;-0.94;59.37
63287;BME280;49410;55.708;37.522;2023-01-29T09:59:21;99174.53;;;-0.86;59.18
63287;BME280;49410;55.708;37.522;2023-01-29T10:02:02;99145.31;;;-0.91;58.94
63287;BME280;49410;55.708;37.522;2023-01-29T10:12:54;99141.72;;;-0.66;57.69
63287;BME280;49410;55.708;37.522;2023-01-29T10:23:38;99131.16;;;-0.80;58.66
63287;BME280;49410;55.708;37.522;2023-01-29T10:26:10;99117.38;;;-0.75;59.32
63287;BME280;49410;55.708;37.522;2023-01-29T10:28:44;99110.28;;;-0.76;59.37
63287;BME280;49410;55.708;37.522;2023-01-29T10:31:30;99094.59;;;-0.70;58.82
63287;BME280;49410;55.708;37.522;2023-01-29T10:34:03;99100.03;;;-0.58;59.35
63287;BME280;49410;55.708;37.522;2023-01-29T10:36:40;99089.97;;;-0.68;58.87
63287;BME280;49410;55.708;37.522;2023-01-29T10:39:15;99096.13;;;-0.54;58.81
63287;BME280;49410;55.708;37.522;2023-01-29T10:47:29;99082.81;;;-0.56;58.98
63287;BME280;49410;55.708;37.522;2023-01-29T11:00:40;99069.44;;;-0.44;59.26
63287;BME280;49410;55.708;37.522;2023-01-29T11:03:16;99065.41;;;-0.50;59.14
63287;BME280;49410;55.708;37.522;2023-01-29T11:06:20;99054.88;;;-0.53;58.93
63287;BME280;49410;55.708;37.522;2023-01-29T11:11:17;99056.25;;;-0.48;59.87
63287;BME280;49410;55.708;37.522;2023-01-29T11:14:04;99045.50;;;-0.48;58.91
63287;BME280;49410;55.708;37.522;2023-01-29T11:16:46;99034.34;;;-0.54;59.19
63287;BME280;49410;55.708;37.522;2023-01-29T11:19:12;99031.72;;;-0.67;59.31
63287;BME280;49410;55.708;37.522;2023-01-29T11:21:58;99052.66;;;-0.59;59.26
63287;BME280;49410;55.708;37.522;2023-01-29T11:24:25;99044.81;;;-0.63;59.77
63287;BME280;49410;55.708;37.522;2023-01-29T11:26:54;99033.72;;;-0.58;59.69
63287;BME280;49410;55.708;37.522;2023-01-29T11:29:44;99049.91;;;-0.47;59.34
63287;BME280;49410;55.708;37.522;2023-01-29T11:37:39;99038.69;;;-0.40;59.32
63287;BME280;49410;55.708;37.522;2023-01-29T11:42:51;99030.00;;;-0.44;59.58
63287;BME280;49410;55.708;37.522;2023-01-29T11:45:25;99020.22;;;-0.45;58.88
63287;BME280;49410;55.708;37.522;2023-01-29T11:47:57;99026.88;;;-0.38;59.83
63287;BME280;49410;55.708;37.522;2023-01-29T11:50:26;99026.34;;;-0.43;59.40
63287;BME280;49410;55.708;37.522;2023-01-29T11:52:54;99029.19;;;-0.33;60.30
63287;BME280;49410;55.708;37.522;2023-01-29T11:55:32;99036.16;;;-0.30;59.48
63287;BME280;49410;55.708;37.522;2023-01-29T11:58:29;99000.69;;;-0.47;59.67
63287;BME280;49410;55.708;37.522;2023-01-29T12:00:56;99010.38;;;-0.33;59.64
63287;BME280;49410;55.708;37.522;2023-01-29T12:03:33;99017.56;;;-0.34;59.62
63287;BME280;49410;55.708;37.522;2023-01-29T12:08:35;99014.44;;;-0.27;59.89
63287;BME280;49410;55.708;37.522;2023-01-29T12:11:14;98994.72;;;-0.39;59.42
63287;BME280;49410;55.708;37.522;2023-01-29T12:13:41;99016.25;;;-0.28;60.46
63287;BME280;49410;55.708;37.522;2023-01-29T12:21:46;99013.16;;;-0.46;59.58
63287;BME280;49410;55.708;37.522;2023-01-29T12:24:33;99005.00;;;-0.33;60.48
63287;BME280;49410;55.708;37.522;2023-01-29T12:27:05;99005.25;;;-0.36;60.39
63287;BME280;49410;55.708;37.522;2023-01-29T12:34:53;99000.31;;;-0.54;60.84
63287;BME280;49410;55.708;37.522;2023-01-29T12:37:30;99009.41;;;-0.68;61.36
63287;BME280;49410;55.708;37.522;2023-01-29T12:40:00;99010.78;;;-0.62;61.27
63287;BME280;49410;55.708;37.522;2023-01-29T12:42:26;99007.44;;;-0.66;61.42
63287;BME280;49410;55.708;37.522;2023-01-29T12:44:58;99009.28;;;-0.66;61.84
63287;BME280;49410;55.708;37.522;2023-01-29T12:47:30;99000.94;;;-0.74;61.76
63287;BME280;49410;55.708;37.522;2023-01-29T12:50:02;99003.34;;;-0.83;61.87
63287;BME280;49410;55.708;37.522;2023-01-29T12:55:14;98985.34;;;-0.94;62.02
63287;BME280;49410;55.708;37.522;2023-01-29T12:57:53;99014.19;;;-0.84;62.37
63287;BME280;49410;55.708;37.522;2023-01-29T13:00:23;99004.41;;;-0.85;62.56
63287;BME280;49410;55.708;37.522;2023-01-29T13:05:49;99013.56;;;-0.88;62.41
63287;BME280;49410;55.708;37.522;2023-01-29T13:10:48;99001.22;;;-0.90;62.77
63287;BME280;49410;55.708;37.522;2023-01-29T13:13:37;98996.88;;;-1.04;62.85
63287;BME280;49410;55.708;37.522;2023-01-29T13:16:11;98978.53;;;-1.11;63.02
63287;BME280;49410;55.708;37.522;2023-01-29T13:18:45;98987.13;;;-1.05;63.10
63287;BME280;49410;55.708;37.522;2023-01-29T13:21:15;98979.91;;;-1.05;62.99
63287;BME280;49410;55.708;37.522;2023-01-29T13:23:45;98981.34;;;-1.12;63.24
63287;BME280;49410;55.708;37.522;2023-01-29T13:26:12;98987.25;;;-1.07;63.02
63287;BME280;49410;55.708;37.522;2023-01-29T13:28:43;98979.56;;;-1.00;63.09
63287;BME280;49410;55.708;37.522;2023-01-29T13:31:28;98981.63;;;-1.04;63.07
63287;BME280;49410;55.708;37.522;2023-01-29T13:34:22;98984.22;;;-1.02;63.46
63287;BME280;49410;55.708;37.522;2023-01-29T13:36:51;98982.19;;;-1.12;63.00
63287;BME280;49410;55.708;37.522;2023-01-29T13:39:31;98987.88;;;-1.03;62.90
63287;BME280;49410;55.708;37.522;2023-01-29T13:41:59;98989.56;;;-1.02;63.02
63287;BME280;49410;55.708;37.522;2023-01-29T13:44:27;98996.88;;;-1.04;63.46
63287;BME280;49410;55.708;37.522;2023-01-29T13:47:00;98946.84;;;-1.30;63.16
63287;BME280;49410;55.708;37.522;2023-01-29T13:49:33;98972.53;;;-1.14;63.32
63287;BME280;49410;55.708;37.522;2023-01-29T13:52:31;98973.91;;;-1.08;62.99
63287;BME280;49410;55.708;37.522;2023-01-29T13:55:08;98968.47;;;-1.20;63.56
63287;BME280;49410;55.708;37.522;2023-01-29T14:03:32;98966.19;;;-1.13;63.39
63287;BME280;49410;55.708;37.522;2023-01-29T14:13:42;98944.72;;;-1.13;63.30
63287;BME280;49410;55.708;37.522;2023-01-29T14:18:48;98942.91;;;-1.13;63.80
63287;BME280;49410;55.708;37.522;2023-01-29T14:23:47;98941.53;;;-1.18;63.31
63287;BME280;49410;55.708;37.522;2023-01-29T14:26:27;98951.47;;;-1.07;63.73
63287;BME280;49410;55.708;37.522;2023-01-29T14:37:01;98937.44;;;-1.11;63.96
63287;BME280;49410;55.708;37.522;2023-01-29T14:39:34;98950.38;;;-1.05;63.84
63287;BME280;49410;55.708;37.522;2023-01-29T14:42:03;98938.41;;;-1.12;63.89
63287;BME280;49410;55.708;37.522;2023-01-29T14:47:19;98941.41;;;-1.17;65.08
63287;BME280;49410;55.708;37.522;2023-01-29T14:49:52;98936.34;;;-1.08;64.82
63287;BME280;49410;55.708;37.522;2023-01-29T14:56:18;98941.34;;;-1.04;64.76
63287;BME280;49410;55.708;37.522;2023-01-29T14:58:52;98924.97;;;-1.12;64.86
63287;BME280;49410;55.708;37.522;2023-01-29T15:01:34;98930.00;;;-1.07;65.15
63287;BME280;49410;55.708;37.522;2023-01-29T15:04:18;98937.50;;;-1.00;64.92
63287;BME280;49410;55.708;37.522;2023-01-29T15:09:41;98933.94;;;-1.00;65.02
63287;BME280;49410;55.708;37.522;2023-01-29T15:12:15;98930.13;;;-1.09;65.46
63287;BME280;49410;55.708;37.522;2023-01-29T15:14:55;98931.94;;;-1.10;65.58
63287;BME280;49410;55.708;37.522;2023-01-29T15:17:58;98934.47;;;-1.19;65.75
63287;BME280;49410;55.708;37.522;2023-01-29T15:20:33;98932.00;;;-1.22;66.37
63287;BME280;49410;55.708;37.522;2023-01-29T15:23:00;98920.06;;;-1.18;65.63
63287;BME280;49410;55.708;37.522;2023-01-29T15:25:51;98917.75;;;-1.23;66.15
63287;BME280;49410;55.708;37.522;2023-01-29T15:28:15;98920.41;;;-1.23;66.19
63287;BME280;49410;55.708;37.522;2023-01-29T15:30:41;98934.13;;;-1.15;66.41
63287;BME280;49410;55.708;37.522;2023-01-29T15:33:09;98916.72;;;-1.33;66.62
63287;BME280;49410;55.708;37.522;2023-01-29T15:35:36;98944.56;;;-1.23;67.21
63287;BME280;49410;55.708;37.522;2023-01-29T15:38:14;98939.91;;;-1.21;67.19
63287;BME280;49410;55.708;37.522;2023-01-29T15:40:40;98932.69;;;-1.32;67.19
63287;BME280;49410;55.708;37.522;2023-01-29T15:43:23;98928.06;;;-1.30;67.68
63287;BME280;49410;55.708;37.522;2023-01-29T15:45:50;98930.28;;;-1.23;67.08
63287;BME280;49410;55.708;37.522;2023-01-29T15:48:29;98913.78;;;-1.30;67.42
63287;BME280;49410;55.708;37.522;2023-01-29T15:50:56;98920.22;;;-1.33;67.37
63287;BME280;49410;55.708;37.522;2023-01-29T15:53:29;98936.44;;;-1.34;68.11